Monroe, UT

5:43 PM MDT on April 25, 2015 (GMT -0600)
Poverty Ranch | | Change Station
CLOSE
Current Station
Personal Weather Station
Location: Monroe, UT
Elevation: 5459 ft
Nearby Weather Stations

Elev 5459 ft 38.64 °N, 112.17 °W | Updated 10 minutes ago

Overcast
Overcast
44.8 °F
Feels Like 37 °F
N
18.0
Wind Variable Wind from SW

Today
High -- | Low -- °F
--% Chance of Precip.
Yesterday
High -- | Low -- °F
Precip. -- in
6:38 AM 8:14 PM
Waxing Crescent, 50% visible
Pressure 29.64 in
Visibility 10.0 miles
Clouds Scattered Clouds 2000 ft
Mostly Cloudy 4300 ft
Overcast 6000 ft
Windchill 37 °F
Dew Point 40 °F
Humidity 82%
Rainfall 0.21 in
Snow Depth Not available.
UV 0.0 out of 12
Pollen 4.10 out of 12
Air Quality Not available.
Flu Activity Local Activity
METAR KMLF 252252Z AUTO 20017KT 10SM SCT020 BKN043 OVC060 08/M02 A2970 RMK AO2 PK WND 20026/2158 RAE23 SLP035 P0001 T00831022 TSNO

More Conditions Fewer Conditions

Pressure 29.64 in
Visibility 10.0 miles
Clouds Scattered Clouds 2000 ft
Mostly Cloudy 4300 ft
Overcast 6000 ft
Windchill 37 °F
Dew Point 40 °F
Humidity 82%
Rainfall 0.21 in
Snow Depth Not available.
UV 0.0 out of 12
Pollen 4.10 out of 12
Air Quality Not available.
Flu Activity Local Activity
METAR KMLF 252252Z AUTO 20017KT 10SM SCT020 BKN043 OVC060 08/M02 A2970 RMK AO2 PK WND 20026/2158 RAE23 SLP035 P0001 T00831022 TSNO

More Conditions Fewer Conditions

Nowcast | as of 3:11 PM MDT on April 25, 2015

Showers along with scattered thunderstorms will continue over much of southern and central Utah this afternoon. The strongest storms at 300 PM were located over eastern Juab County...over Kodachrome Basin State Park...and over the mountains south of Beaver. Expect heavy rain...locally gusty winds...small hail...and dangerous cloud to ground lightning with some of these storms.

×

10-Day Weather Forecast

Almanac

Astronomy

Apr. 25, 2015 Rise Set
Actual Time
Civil Twilight
Nautical Twilight
Astronomical Twilight
Moon
Length of Visible Light
Length of Day
Tomorrow will be .
, % of the Moon is Illuminated

Today's Extremes

State Highs State Lows

Community

WunderPhotos

Upload Photos

1,816,850 photos uploaded!

WunderBlogs® & News

Nearby

Air Quality

  Air Quality AQ Index Pollutant
Not available.

Snow Depth

Station Depth Elevation

Earthquake Activity

City Distance Mag. Time & Date
Minimum magnitude displayed is 2.5.

Coastal Water Temperatures

Place Temperature

Stations

Nearby Weather Stations

Station Location Temp. Windchill Dew Point Humidity Wind Precip. Elev Updated Type